createdAt,value
2023-03-13T00:02:37.341Z,100963.30
2023-03-13T00:06:05.525Z,100982.20
2023-03-13T00:09:15.442Z,100990.33
2023-03-13T00:12:23.875Z,100985.48
2023-03-13T00:15:33.978Z,100983.70
2023-03-13T00:19:01.756Z,100981.24
2023-03-13T00:22:29.506Z,100993.67
2023-03-13T00:25:57.638Z,100986.45
2023-03-13T00:29:25.603Z,100988.08
2023-03-13T00:32:53.620Z,100978.04
2023-03-13T00:36:21.800Z,100980.86
2023-03-13T00:39:49.648Z,100989.22
2023-03-13T00:43:17.664Z,100987.52
2023-03-13T00:46:45.795Z,100999.61
2023-03-13T00:50:13.847Z,101001.41
2023-03-13T00:53:03.576Z,101002.73
2023-03-13T00:56:31.627Z,101002.66
2023-03-13T00:59:41.938Z,101001.73
2023-03-13T01:03:09.973Z,100998.08
2023-03-13T01:06:18.565Z,101002.68
2023-03-13T01:09:46.380Z,100997.69
2023-03-13T01:13:14.344Z,101001.99
2023-03-13T01:16:30.233Z,101007.31
2023-03-13T01:19:40.072Z,101011.48
2023-03-13T01:23:08.834Z,101016.25
2023-03-13T01:26:14.349Z,101020.99
2023-03-13T01:29:43.562Z,101022.65
2023-03-13T01:32:52.516Z,101029.15
2023-03-13T01:36:20.268Z,101041.25
2023-03-13T01:39:48.608Z,101046.23
2023-03-13T01:43:26.178Z,101045.71
2023-03-13T01:46:45.700Z,101053.77
2023-03-13T01:50:13.562Z,101055.80
2023-03-13T01:53:37.180Z,101056.87
2023-03-13T01:57:04.885Z,101059.95
2023-03-13T02:00:13.888Z,101066.31
2023-03-13T02:03:21.821Z,101060.49
2023-03-13T02:06:20.500Z,101052.71
2023-03-13T02:09:48.821Z,101046.54
2023-03-13T02:13:16.895Z,101036.41
2023-03-13T02:16:25.917Z,101030.08
2023-03-13T02:19:54.102Z,101022.40
2023-03-13T02:23:22.169Z,101019.98
2023-03-13T02:26:31.188Z,101025.58
2023-03-13T02:29:59.150Z,101031.36
2023-03-13T02:32:57.329Z,101031.49
2023-03-13T02:35:27.257Z,101030.23
2023-03-13T02:38:44.694Z,101027.48
2023-03-13T02:41:56.735Z,101031.19
2023-03-13T02:45:06.175Z,101031.36
2023-03-13T02:48:34.030Z,101028.14
2023-03-13T02:52:02.708Z,101034.97
2023-03-13T02:55:30.974Z,101043.80
2023-03-13T02:58:49.336Z,101048.43
2023-03-13T03:02:07.366Z,101045.13
2023-03-13T03:05:35.331Z,101041.31
2023-03-13T03:08:51.794Z,101040.59
2023-03-13T03:12:19.695Z,101032.30
2023-03-13T03:15:28.761Z,101024.20
2023-03-13T03:18:37.601Z,101028.81
2023-03-13T03:22:05.216Z,101043.80
2023-03-13T03:25:33.522Z,101052.03
2023-03-13T03:28:43.351Z,101050.95
2023-03-13T03:31:51.307Z,101042.77
2023-03-13T03:35:19.081Z,101040.49
2023-03-13T03:38:16.594Z,101036.48
2023-03-13T03:41:42.010Z,101034.46
2023-03-13T03:44:51.037Z,101033.68
2023-03-13T03:48:01.327Z,101049.31
2023-03-13T03:50:58.594Z,101039.17
2023-03-13T03:54:26.658Z,101040.79
2023-03-13T03:57:06.776Z,101041.06
2023-03-13T04:00:30.327Z,101043.16
2023-03-13T04:03:20.815Z,101045.29
2023-03-13T04:05:50.649Z,101050.64
2023-03-13T04:09:02.797Z,101046.92
2023-03-13T04:12:30.623Z,101041.73
2023-03-13T04:15:58.517Z,101046.36
2023-03-13T04:19:07.793Z,101045.83
2023-03-13T04:21:59.388Z,101048.68
2023-03-13T04:24:36.045Z,101052.19
2023-03-13T04:27:25.787Z,101059.89
2023-03-13T04:30:54.164Z,101075.83
2023-03-13T04:34:20.860Z,101079.73
2023-03-13T04:37:49.336Z,101074.77
2023-03-13T04:41:26.477Z,101068.39
2023-03-13T04:44:54.535Z,101055.13
2023-03-13T04:48:19.712Z,101044.89
2023-03-13T04:51:37.374Z,101045.66
2023-03-13T04:55:17.752Z,101055.91
2023-03-13T04:58:50.360Z,101059.05
2023-03-13T05:02:18.209Z,101054.64
2023-03-13T05:05:48.924Z,101051.48
2023-03-13T05:09:04.262Z,101042.42
2023-03-13T05:12:13.011Z,101036.27
2023-03-13T05:15:21.696Z,101024.30
2023-03-13T05:18:32.710Z,101021.31
2023-03-13T05:22:16.496Z,101028.72
2023-03-13T05:25:28.245Z,101041.30
2023-03-13T05:28:37.219Z,101046.88
2023-03-13T05:32:08.398Z,101050.88
2023-03-13T05:35:31.192Z,101056.92
2023-03-13T05:38:48.397Z,101065.23
2023-03-13T05:42:20.060Z,101065.63
2023-03-13T05:45:10.412Z,101076.43
2023-03-13T05:48:23.372Z,101082.45
2023-03-13T05:51:43.377Z,101084.23
2023-03-13T05:55:11.931Z,101088.71
2023-03-13T05:58:40.101Z,101094.43
2023-03-13T06:02:16.961Z,101094.05
2023-03-13T06:05:22.939Z,101096.14
2023-03-13T06:08:50.976Z,101096.60
2023-03-13T06:12:19.374Z,101096.89
2023-03-13T06:15:47.640Z,101098.74
2023-03-13T06:19:15.646Z,101101.92
2023-03-13T06:22:43.508Z,101099.25
2023-03-13T06:26:11.757Z,101097.98
2023-03-13T06:29:39.621Z,101092.71
2023-03-13T06:32:49.484Z,101096.10
2023-03-13T06:36:00.240Z,101099.05
2023-03-13T06:39:28.489Z,101105.13
2023-03-13T06:42:56.573Z,101107.98
2023-03-13T06:46:24.732Z,101108.25
2023-03-13T06:49:52.712Z,101102.98
2023-03-13T06:52:44.236Z,101093.68
2023-03-13T06:56:10.176Z,101096.62
2023-03-13T06:59:20.170Z,101095.91
2023-03-13T07:02:48.081Z,101092.27
2023-03-13T07:06:16.350Z,101087.72
2023-03-13T07:09:45.077Z,101090.05
2023-03-13T07:12:55.200Z,101093.05
2023-03-13T07:16:23.298Z,101090.23
2023-03-13T07:19:51.006Z,101094.09
2023-03-13T07:23:19.182Z,101093.55
2023-03-13T07:27:02.070Z,101102.13
2023-03-13T07:30:15.931Z,101098.44
2023-03-13T07:33:12.908Z,101096.95
2023-03-13T07:36:41.687Z,101090.21
2023-03-13T07:40:09.859Z,101081.63
2023-03-13T07:43:37.722Z,101081.64
2023-03-13T07:47:06.439Z,101077.16
2023-03-13T07:50:34.338Z,101071.80
2023-03-13T07:53:44.466Z,101078.10
2023-03-13T07:57:12.439Z,101087.76
2023-03-13T08:00:40.470Z,101097.70
2023-03-13T08:03:49.475Z,101095.50
2023-03-13T08:07:18.033Z,101096.19
2023-03-13T08:10:41.800Z,101104.40
2023-03-13T08:13:50.524Z,101107.12
2023-03-13T08:16:59.358Z,101105.73
2023-03-13T08:20:27.242Z,101102.38
2023-03-13T08:23:39.099Z,101100.55
2023-03-13T08:26:47.920Z,101093.30
2023-03-13T08:30:11.320Z,101089.91
2023-03-13T08:33:01.072Z,101087.80
2023-03-13T08:36:28.886Z,101081.09
2023-03-13T08:39:57.044Z,101067.94
2023-03-13T08:43:24.833Z,101059.60
2023-03-13T08:46:52.577Z,101061.48
2023-03-13T08:50:20.300Z,101058.86
2023-03-13T08:53:48.625Z,101059.46
2023-03-13T08:57:16.814Z,101056.92
2023-03-13T09:00:17.950Z,101061.06
2023-03-13T09:03:46.260Z,101060.70
2023-03-13T09:07:13.945Z,101062.05
2023-03-13T09:10:41.578Z,101063.34
2023-03-13T09:14:09.710Z,101058.90
2023-03-13T09:17:37.771Z,101051.08
2023-03-13T09:20:49.065Z,101051.81
2023-03-13T09:23:58.030Z,101047.08
2023-03-13T09:27:06.506Z,101037.39
2023-03-13T09:30:34.236Z,101036.83
2023-03-13T09:33:50.979Z,101028.32
2023-03-13T09:37:19.373Z,101023.39
2023-03-13T09:40:24.613Z,101022.68
2023-03-13T09:43:34.470Z,101012.82
2023-03-13T09:47:02.451Z,101012.21
2023-03-13T09:50:30.470Z,101005.25
2023-03-13T09:53:58.393Z,100994.23
2023-03-13T09:57:26.541Z,100987.86
2023-03-13T10:00:54.333Z,100978.89
2023-03-13T10:04:22.305Z,100977.73
2023-03-13T10:07:31.181Z,100972.77
2023-03-13T10:10:43.402Z,100956.73
2023-03-13T10:13:59.349Z,100943.38
2023-03-13T10:17:22.608Z,100943.61
2023-03-13T10:20:50.367Z,100938.91
2023-03-13T10:24:19.647Z,100940.59
2023-03-13T10:27:16.803Z,100932.89
2023-03-13T10:30:32.739Z,100934.05
2023-03-13T10:33:42.684Z,100927.11
2023-03-13T10:36:59.258Z,100923.79
2023-03-13T10:40:27.076Z,100924.23
2023-03-13T10:43:37.171Z,100910.38
2023-03-13T10:46:26.058Z,100908.38
2023-03-13T10:49:15.549Z,100906.86
2023-03-13T10:52:24.174Z,100901.10
2023-03-13T10:55:40.704Z,100902.59
2023-03-13T10:59:08.612Z,100900.62
2023-03-13T11:02:20.752Z,100891.11
2023-03-13T11:05:21.162Z,100882.76
2023-03-13T11:08:50.660Z,100880.25
2023-03-13T11:11:39.498Z,100879.64
2023-03-13T11:15:03.791Z,100877.23
2023-03-13T11:18:31.685Z,100875.77
2023-03-13T11:21:40.178Z,100879.30
2023-03-13T11:25:08.472Z,100878.87
2023-03-13T11:28:36.471Z,100876.17
2023-03-13T11:31:46.718Z,100866.77
2023-03-13T11:35:02.598Z,100866.61
2023-03-13T11:38:30.770Z,100856.49
2023-03-13T11:41:24.503Z,100856.77
2023-03-13T11:44:52.262Z,100853.48
2023-03-13T11:48:19.910Z,100845.23
2023-03-13T11:51:45.024Z,100842.48
2023-03-13T11:55:12.718Z,100839.65
2023-03-13T11:58:40.629Z,100826.14
2023-03-13T12:01:49.129Z,100836.82
2023-03-13T12:04:52.827Z,100832.23
2023-03-13T12:08:02.141Z,100819.77
2023-03-13T12:11:05.490Z,100812.69
2023-03-13T12:14:21.500Z,100804.98
2023-03-13T12:17:38.794Z,100788.62
2023-03-13T12:20:40.704Z,100782.66
2023-03-13T12:23:33.196Z,100773.46
2023-03-13T12:26:57.418Z,100772.33
2023-03-13T12:30:25.277Z,100768.47
2023-03-13T12:33:53.324Z,100764.27
2023-03-13T12:37:02.231Z,100750.66
2023-03-13T12:40:26.847Z,100744.52
2023-03-13T12:43:02.049Z,100736.00
2023-03-13T12:46:10.164Z,100735.84
2023-03-13T12:48:58.170Z,100735.07
2023-03-13T12:52:07.377Z,100742.86
2023-03-13T12:54:37.565Z,100742.05
2023-03-13T12:57:05.375Z,100734.12
2023-03-13T12:59:56.937Z,100726.31
2023-03-13T13:03:04.654Z,100722.27
2023-03-13T13:06:16.846Z,100717.40
2023-03-13T13:09:09.812Z,100714.30
2023-03-13T13:12:37.803Z,100703.77
2023-03-13T13:15:32.376Z,100699.91
2023-03-13T13:18:18.270Z,100691.08
2023-03-13T13:21:03.371Z,100691.25
2023-03-13T13:24:11.305Z,100691.84
2023-03-13T13:26:39.154Z,100688.76
2023-03-13T13:29:19.093Z,100685.08
2023-03-13T13:32:47.331Z,100680.70
2023-03-13T13:35:35.223Z,100677.41
2023-03-13T13:38:04.992Z,100677.00
2023-03-13T13:41:14.842Z,100679.21
2023-03-13T13:43:47.903Z,100675.20
2023-03-13T13:46:41.182Z,100669.88
2023-03-13T13:50:06.967Z,100663.52
2023-03-13T13:53:15.601Z,100661.52
2023-03-13T13:56:43.532Z,100652.60
2023-03-13T14:00:11.292Z,100651.33
2023-03-13T14:03:19.164Z,100643.55
2023-03-13T14:06:08.058Z,100637.42
2023-03-13T14:08:59.824Z,100639.84
2023-03-13T14:11:53.625Z,100639.04
2023-03-13T14:15:18.054Z,100636.15
2023-03-13T14:18:45.700Z,100636.20
2023-03-13T14:21:35.439Z,100633.75
2023-03-13T14:24:29.905Z,100630.95
2023-03-13T14:27:37.798Z,100623.98
2023-03-13T14:30:49.276Z,100618.38
2023-03-13T14:33:56.965Z,100612.70
2023-03-13T14:37:24.954Z,100614.66
2023-03-13T14:40:40.568Z,100605.98
2023-03-13T14:43:48.826Z,100601.70
2023-03-13T14:47:04.740Z,100594.11
2023-03-13T14:49:54.411Z,100593.77
2023-03-13T14:53:01.838Z,100582.94
2023-03-13T14:56:11.063Z,100570.73
2023-03-13T14:59:26.854Z,100564.59
2023-03-13T15:02:35.883Z,100558.90
2023-03-13T15:05:06.296Z,100550.04
2023-03-13T15:07:52.954Z,100548.08
2023-03-13T15:11:08.972Z,100545.23
2023-03-13T15:14:16.908Z,100537.12
2023-03-13T15:17:25.039Z,100544.85
2023-03-13T15:20:15.022Z,100551.70
2023-03-13T15:23:42.764Z,100550.71
2023-03-13T15:27:10.551Z,100540.66
2023-03-13T15:29:58.441Z,100538.38
2023-03-13T15:33:14.857Z,100541.46
2023-03-13T15:36:03.932Z,100541.38
2023-03-13T15:38:54.719Z,100538.67
2023-03-13T15:42:10.734Z,100542.20
2023-03-13T15:45:00.926Z,100541.46
2023-03-13T15:48:24.683Z,100541.79
2023-03-13T15:51:52.326Z,100541.29
2023-03-13T15:55:20.250Z,100533.47
2023-03-13T15:58:09.142Z,100536.95
2023-03-13T16:01:37.325Z,100531.90
2023-03-13T16:04:07.610Z,100529.69
2023-03-13T16:07:23.298Z,100528.64
2023-03-13T16:10:12.026Z,100534.27
2023-03-13T16:13:20.433Z,100541.09
2023-03-13T16:16:28.218Z,100545.55
2023-03-13T16:19:16.379Z,100541.80
2023-03-13T16:21:50.908Z,100542.23
2023-03-13T16:25:02.867Z,100538.86
2023-03-13T16:28:11.269Z,100540.87
2023-03-13T16:30:41.441Z,100538.70
2023-03-13T16:33:11.421Z,100533.27
2023-03-13T16:35:59.863Z,100538.72
2023-03-13T16:38:58.320Z,100540.38
2023-03-13T16:41:28.372Z,100543.19
2023-03-13T16:44:19.946Z,100542.63
2023-03-13T16:47:47.925Z,100538.37
2023-03-13T16:51:15.827Z,100543.13
2023-03-13T16:54:21.102Z,100545.42
2023-03-13T16:56:59.289Z,100547.14
2023-03-13T16:59:55.612Z,100549.93
2023-03-13T17:03:04.378Z,100553.43
2023-03-13T17:06:21.468Z,100547.25
2023-03-13T17:09:29.311Z,100538.79
2023-03-13T17:12:57.126Z,100532.27
2023-03-13T17:16:13.805Z,100530.08
2023-03-13T17:19:21.835Z,100523.09
2023-03-13T17:22:50.065Z,100520.69
2023-03-13T17:25:27.859Z,100518.25
2023-03-13T17:28:36.615Z,100512.77
2023-03-13T17:32:02.703Z,100511.14
2023-03-13T17:34:55.063Z,100505.86
2023-03-13T17:38:02.839Z,100501.22
2023-03-13T17:41:10.513Z,100497.32
2023-03-13T17:43:49.399Z,100488.95
2023-03-13T17:46:57.756Z,100484.46
2023-03-13T17:50:07.457Z,100478.84
2023-03-13T17:53:35.198Z,100473.28
2023-03-13T17:56:24.090Z,100473.80
2023-03-13T17:59:51.711Z,100468.27
2023-03-13T18:02:40.643Z,100469.48
2023-03-13T18:05:49.215Z,100462.56
2023-03-13T18:08:38.057Z,100460.75
2023-03-13T18:11:07.213Z,100462.48
2023-03-13T18:13:45.624Z,100460.48
2023-03-13T18:17:13.503Z,100459.25
2023-03-13T18:20:41.732Z,100458.36
2023-03-13T18:24:09.869Z,100452.42
2023-03-13T18:27:37.842Z,100450.73
2023-03-13T18:31:05.923Z,100447.70
2023-03-13T18:34:30.270Z,100444.99
2023-03-13T18:37:58.130Z,100449.25
2023-03-13T18:41:11.082Z,100453.80
2023-03-13T18:44:21.000Z,100452.61
2023-03-13T18:47:37.911Z,100452.34
2023-03-13T18:50:47.092Z,100454.25
2023-03-13T18:54:14.958Z,100456.23
2023-03-13T18:57:43.115Z,100457.02
2023-03-13T19:01:11.153Z,100456.84
2023-03-13T19:04:20.222Z,100458.13
2023-03-13T19:07:45.329Z,100459.92
2023-03-13T19:10:54.395Z,100462.33
2023-03-13T19:14:22.360Z,100470.02
2023-03-13T19:17:50.548Z,100465.27
2023-03-13T19:21:00.296Z,100457.14
2023-03-13T19:24:09.318Z,100457.12
2023-03-13T19:27:37.161Z,100450.21
2023-03-13T19:31:05.155Z,100439.63
2023-03-13T19:34:33.046Z,100426.91
2023-03-13T19:37:42.145Z,100430.16
2023-03-13T19:41:09.888Z,100425.59
2023-03-13T19:44:14.884Z,100427.92
2023-03-13T19:47:23.426Z,100424.88
2023-03-13T19:50:33.030Z,100422.81
2023-03-13T19:53:42.010Z,100420.71
2023-03-13T19:56:57.820Z,100413.75
2023-03-13T20:00:06.578Z,100412.46
2023-03-13T20:03:14.438Z,100408.87
2023-03-13T20:06:42.055Z,100416.09
2023-03-13T20:10:09.903Z,100413.04
2023-03-13T20:13:00.544Z,100411.48
2023-03-13T20:16:14.541Z,100409.48
2023-03-13T20:19:14.740Z,100405.05
2023-03-13T20:22:03.666Z,100400.35
2023-03-13T20:25:07.736Z,100390.54
2023-03-13T20:28:35.669Z,100383.10
2023-03-13T20:31:59.681Z,100377.82
2023-03-13T20:35:11.532Z,100370.83
2023-03-13T20:38:20.533Z,100369.62
2023-03-13T20:41:49.194Z,100367.48
2023-03-13T20:45:12.753Z,100363.80
2023-03-13T20:48:41.264Z,100350.88
2023-03-13T20:51:50.459Z,100345.25
2023-03-13T20:54:59.185Z,100341.11
2023-03-13T20:58:27.839Z,100328.50
2023-03-13T21:01:55.741Z,100321.15
2023-03-13T21:05:23.418Z,100320.20
2023-03-13T21:08:52.922Z,100327.04
2023-03-13T21:12:16.402Z,100343.02
2023-03-13T21:15:44.265Z,100343.84
2023-03-13T21:18:54.376Z,100334.57
2023-03-13T21:22:22.146Z,100329.25
2023-03-13T21:25:46.834Z,100324.46
2023-03-13T21:29:02.433Z,100326.40
2023-03-13T21:31:58.883Z,100317.86
2023-03-13T21:35:26.692Z,100317.13
2023-03-13T21:38:35.635Z,100312.16
2023-03-13T21:41:59.000Z,100311.60
2023-03-13T21:44:48.922Z,100311.25
2023-03-13T21:48:16.900Z,100304.75
2023-03-13T21:51:26.216Z,100304.40
2023-03-13T21:54:54.292Z,100303.23
2023-03-13T21:58:22.148Z,100298.21
2023-03-13T22:01:50.966Z,100293.98
2023-03-13T22:04:43.121Z,100288.87
2023-03-13T22:07:51.824Z,100288.33
2023-03-13T22:11:21.435Z,100286.59
2023-03-13T22:14:44.748Z,100285.26
2023-03-13T22:18:00.882Z,100282.92
2023-03-13T22:20:33.026Z,100277.73
2023-03-13T22:23:41.259Z,100269.73
2023-03-13T22:27:08.984Z,100265.39
2023-03-13T22:30:22.522Z,100254.24
2023-03-13T22:33:27.748Z,100250.50
2023-03-13T22:36:35.677Z,100249.09
2023-03-13T22:40:03.487Z,100241.30
2023-03-13T22:43:15.309Z,100238.73
2023-03-13T22:46:43.021Z,100238.56
2023-03-13T22:50:00.012Z,100235.38
2023-03-13T22:52:49.793Z,100230.73
2023-03-13T22:55:40.795Z,100225.73
2023-03-13T22:58:45.117Z,100223.25
2023-03-13T23:01:55.114Z,100222.34
2023-03-13T23:05:05.139Z,100220.62
2023-03-13T23:08:08.729Z,100221.51
2023-03-13T23:11:36.911Z,100211.40
2023-03-13T23:14:42.187Z,100206.92
2023-03-13T23:17:50.775Z,100202.64
2023-03-13T23:20:47.432Z,100200.08
2023-03-13T23:23:45.196Z,100198.58
2023-03-13T23:27:00.789Z,100195.33
2023-03-13T23:30:24.408Z,100192.92
2023-03-13T23:33:36.143Z,100185.23
2023-03-13T23:36:24.984Z,100181.04
2023-03-13T23:39:33.124Z,100187.58
2023-03-13T23:42:45.005Z,100193.02
2023-03-13T23:45:53.274Z,100197.83
2023-03-13T23:49:21.370Z,100198.16
2023-03-13T23:52:19.371Z,100197.89
2023-03-13T23:55:26.729Z,100186.50
2023-03-13T23:58:36.773Z,100183.43
